sensor_id;sensor_type;location;lat;lon;timestamp;temperature;humidity
83596;HTU21D;73564;45.026;38.952;2023-11-21T00:00:32;10.35;73.98
83596;HTU21D;73564;45.026;38.952;2023-11-21T00:02:57;10.34;73.86
83596;HTU21D;73564;45.026;38.952;2023-11-21T00:05:23;10.28;73.71
83596;HTU21D;73564;45.026;38.952;2023-11-21T00:07:49;10.19;73.71
83596;HTU21D;73564;45.026;38.952;2023-11-21T00:10:15;10.10;73.90
83596;HTU21D;73564;45.026;38.952;2023-11-21T00:12:41;10.06;74.12
83596;HTU21D;73564;45.026;38.952;2023-11-21T00:15:08;10.08;74.58
83596;HTU21D;73564;45.026;38.952;2023-11-21T00:17:37;10.15;74.85
83596;HTU21D;73564;45.026;38.952;2023-11-21T00:20:07;10.24;73.94
83596;HTU21D;73564;45.026;38.952;2023-11-21T00:22:34;10.23;73.90
83596;HTU21D;73564;45.026;38.952;2023-11-21T00:25:01;10.21;74.18
83596;HTU21D;73564;45.026;38.952;2023-11-21T00:27:29;10.24;74.02
83596;HTU21D;73564;45.026;38.952;2023-11-21T00:29:55;10.23;73.90
83596;HTU21D;73564;45.026;38.952;2023-11-21T00:32:21;10.16;73.60
83596;HTU21D;73564;45.026;38.952;2023-11-21T00:34:47;10.12;74.11
83596;HTU21D;73564;45.026;38.952;2023-11-21T00:37:13;10.13;75.01
83596;HTU21D;73564;45.026;38.952;2023-11-21T00:39:39;10.23;74.44
83596;HTU21D;73564;45.026;38.952;2023-11-21T00:42:06;10.28;74.07
83596;HTU21D;73564;45.026;38.952;2023-11-21T00:44:32;10.30;74.08
83596;HTU21D;73564;45.026;38.952;2023-11-21T00:46:59;10.25;73.63
83596;HTU21D;73564;45.026;38.952;2023-11-21T00:49:25;10.26;74.12
83596;HTU21D;73564;45.026;38.952;2023-11-21T00:51:51;10.21;73.82
83596;HTU21D;73564;45.026;38.952;2023-11-21T00:54:17;10.13;73.78
83596;HTU21D;73564;45.026;38.952;2023-11-21T00:56:43;10.01;73.72
83596;HTU21D;73564;45.026;38.952;2023-11-21T00:59:09;9.92;74.31
83596;HTU21D;73564;45.026;38.952;2023-11-21T01:01:36;9.95;74.66
83596;HTU21D;73564;45.026;38.952;2023-11-21T01:04:05;9.99;74.42
83596;HTU21D;73564;45.026;38.952;2023-11-21T01:06:33;9.99;74.22
83596;HTU21D;73564;45.026;38.952;2023-11-21T01:08:59;9.95;74.27
83596;HTU21D;73564;45.026;38.952;2023-11-21T01:11:25;9.95;74.75
83596;HTU21D;73564;45.026;38.952;2023-11-21T01:13:52;9.98;74.12
83596;HTU21D;73564;45.026;38.952;2023-11-21T01:16:18;9.95;74.17
83596;HTU21D;73564;45.026;38.952;2023-11-21T01:18:44;9.93;74.41
83596;HTU21D;73564;45.026;38.952;2023-11-21T01:21:12;9.93;74.52
83596;HTU21D;73564;45.026;38.952;2023-11-21T01:23:38;9.97;74.25
83596;HTU21D;73564;45.026;38.952;2023-11-21T01:26:03;9.91;74.14
83596;HTU21D;73564;45.026;38.952;2023-11-21T01:28:29;9.88;74.44
83596;HTU21D;73564;45.026;38.952;2023-11-21T01:30:56;9.79;73.15
83596;HTU21D;73564;45.026;38.952;2023-11-21T01:33:23;9.80;74.96
83596;HTU21D;73564;45.026;38.952;2023-11-21T01:35:51;9.83;74.83
83596;HTU21D;73564;45.026;38.952;2023-11-21T01:38:21;9.85;74.78
83596;HTU21D;73564;45.026;38.952;2023-11-21T01:40:48;9.89;74.35
83596;HTU21D;73564;45.026;38.952;2023-11-21T01:43:14;9.86;74.31
83596;HTU21D;73564;45.026;38.952;2023-11-21T01:45:40;9.81;74.34
83596;HTU21D;73564;45.026;38.952;2023-11-21T01:48:07;9.75;74.25
83596;HTU21D;73564;45.026;38.952;2023-11-21T01:50:32;9.67;74.64
83596;HTU21D;73564;45.026;38.952;2023-11-21T01:52:59;9.68;74.80
83596;HTU21D;73564;45.026;38.952;2023-11-21T01:55:27;9.70;74.95
83596;HTU21D;73564;45.026;38.952;2023-11-21T01:57:54;9.75;75.28
83596;HTU21D;73564;45.026;38.952;2023-11-21T02:00:21;9.84;74.97
83596;HTU21D;73564;45.026;38.952;2023-11-21T02:02:48;9.88;75.08
83596;HTU21D;73564;45.026;38.952;2023-11-21T02:05:16;9.88;74.36
83596;HTU21D;73564;45.026;38.952;2023-11-21T02:07:46;9.88;74.75
83596;HTU21D;73564;45.026;38.952;2023-11-21T02:10:15;9.91;74.76
83596;HTU21D;73564;45.026;38.952;2023-11-21T02:12:42;9.93;74.14
83596;HTU21D;73564;45.026;38.952;2023-11-21T02:15:09;9.83;72.66
83596;HTU21D;73564;45.026;38.952;2023-11-21T02:17:43;9.81;74.54
83596;HTU21D;73564;45.026;38.952;2023-11-21T02:20:11;9.84;75.02
83596;HTU21D;73564;45.026;38.952;2023-11-21T02:22:42;9.86;74.31
83596;HTU21D;73564;45.026;38.952;2023-11-21T02:25:09;9.85;74.30
83596;HTU21D;73564;45.026;38.952;2023-11-21T02:27:35;9.84;74.28
83596;HTU21D;73564;45.026;38.952;2023-11-21T02:30:01;9.81;74.67
83596;HTU21D;73564;45.026;38.952;2023-11-21T02:32:27;9.88;74.67
83596;HTU21D;73564;45.026;38.952;2023-11-21T02:34:52;9.89;74.14
83596;HTU21D;73564;45.026;38.952;2023-11-21T02:37:21;9.82;74.28
83596;HTU21D;73564;45.026;38.952;2023-11-21T02:39:47;9.80;74.24
83596;HTU21D;73564;45.026;38.952;2023-11-21T02:42:13;9.78;74.51
83596;HTU21D;73564;45.026;38.952;2023-11-21T02:44:39;9.77;74.25
83596;HTU21D;73564;45.026;38.952;2023-11-21T02:47:05;9.76;74.76
83596;HTU21D;73564;45.026;38.952;2023-11-21T02:49:31;9.84;75.02
83596;HTU21D;73564;45.026;38.952;2023-11-21T02:51:57;9.90;74.38
83596;HTU21D;73564;45.026;38.952;2023-11-21T02:54:23;9.93;74.51
83596;HTU21D;73564;45.026;38.952;2023-11-21T02:56:49;9.96;74.35
83596;HTU21D;73564;45.026;38.952;2023-11-21T02:59:15;9.95;74.41
83596;HTU21D;73564;45.026;38.952;2023-11-21T03:01:41;9.99;74.67
83596;HTU21D;73564;45.026;38.952;2023-11-21T03:04:08;10.04;74.50
83596;HTU21D;73564;45.026;38.952;2023-11-21T03:06:33;10.05;73.97
83596;HTU21D;73564;45.026;38.952;2023-11-21T03:08:59;10.05;74.31
83596;HTU21D;73564;45.026;38.952;2023-11-21T03:11:25;10.10;74.28
83596;HTU21D;73564;45.026;38.952;2023-11-21T03:13:51;10.08;73.99
83596;HTU21D;73564;45.026;38.952;2023-11-21T03:16:18;10.09;73.97
83596;HTU21D;73564;45.026;38.952;2023-11-21T03:18:45;10.11;74.20
83596;HTU21D;73564;45.026;38.952;2023-11-21T03:21:12;10.16;74.26
83596;HTU21D;73564;45.026;38.952;2023-11-21T03:23:38;10.19;73.83
83596;HTU21D;73564;45.026;38.952;2023-11-21T03:26:05;10.16;73.93
83596;HTU21D;73564;45.026;38.952;2023-11-21T03:28:35;10.18;73.99
83596;HTU21D;73564;45.026;38.952;2023-11-21T03:31:02;10.15;73.87
83596;HTU21D;73564;45.026;38.952;2023-11-21T03:33:29;10.14;73.87
83596;HTU21D;73564;45.026;38.952;2023-11-21T03:35:56;10.16;74.22
83596;HTU21D;73564;45.026;38.952;2023-11-21T03:38:21;10.20;73.59
83596;HTU21D;73564;45.026;38.952;2023-11-21T03:40:47;10.14;73.54
83596;HTU21D;73564;45.026;38.952;2023-11-21T03:43:14;10.08;73.82
83596;HTU21D;73564;45.026;38.952;2023-11-21T03:45:40;10.06;74.28
83596;HTU21D;73564;45.026;38.952;2023-11-21T03:48:06;10.08;74.22
83596;HTU21D;73564;45.026;38.952;2023-11-21T03:50:32;10.12;74.04
83596;HTU21D;73564;45.026;38.952;2023-11-21T03:52:59;10.14;73.57
83596;HTU21D;73564;45.026;38.952;2023-11-21T03:55:24;10.05;73.29
83596;HTU21D;73564;45.026;38.952;2023-11-21T03:57:51;9.92;73.69
83596;HTU21D;73564;45.026;38.952;2023-11-21T04:00:19;9.83;73.89
83596;HTU21D;73564;45.026;38.952;2023-11-21T04:02:48;9.80;74.08
83596;HTU21D;73564;45.026;38.952;2023-11-21T04:05:13;9.79;74.28
83596;HTU21D;73564;45.026;38.952;2023-11-21T04:07:39;9.79;74.06
83596;HTU21D;73564;45.026;38.952;2023-11-21T04:10:07;9.80;73.96
83596;HTU21D;73564;45.026;38.952;2023-11-21T04:12:39;9.79;73.93
83596;HTU21D;73564;45.026;38.952;2023-11-21T04:15:05;9.81;74.49
83596;HTU21D;73564;45.026;38.952;2023-11-21T04:17:31;9.86;74.63
83596;HTU21D;73564;45.026;38.952;2023-11-21T04:19:57;9.94;74.28
83596;HTU21D;73564;45.026;38.952;2023-11-21T04:22:23;9.98;74.25
83596;HTU21D;73564;45.026;38.952;2023-11-21T04:24:48;10.04;74.44
83596;HTU21D;73564;45.026;38.952;2023-11-21T04:27:14;10.05;73.57
83596;HTU21D;73564;45.026;38.952;2023-11-21T04:29:44;10.06;74.09
83596;HTU21D;73564;45.026;38.952;2023-11-21T04:32:10;10.07;74.09
83596;HTU21D;73564;45.026;38.952;2023-11-21T04:34:36;10.08;74.17
83596;HTU21D;73564;45.026;38.952;2023-11-21T04:37:02;10.11;74.27
83596;HTU21D;73564;45.026;38.952;2023-11-21T04:39:28;10.18;73.99
83596;HTU21D;73564;45.026;38.952;2023-11-21T04:41:54;10.20;73.88
83596;HTU21D;73564;45.026;38.952;2023-11-21T04:44:20;10.23;73.41
83596;HTU21D;73564;45.026;38.952;2023-11-21T04:46:46;10.15;73.43
83596;HTU21D;73564;45.026;38.952;2023-11-21T04:49:12;10.11;73.64
83596;HTU21D;73564;45.026;38.952;2023-11-21T04:51:38;10.09;73.65
83596;HTU21D;73564;45.026;38.952;2023-11-21T04:54:04;10.09;73.41
83596;HTU21D;73564;45.026;38.952;2023-11-21T04:56:31;10.06;73.45
83596;HTU21D;73564;45.026;38.952;2023-11-21T04:58:57;10.03;73.67
83596;HTU21D;73564;45.026;38.952;2023-11-21T05:01:23;10.00;74.04
83596;HTU21D;73564;45.026;38.952;2023-11-21T05:03:49;10.04;73.72
83596;HTU21D;73564;45.026;38.952;2023-11-21T05:06:15;10.06;73.78
83596;HTU21D;73564;45.026;38.952;2023-11-21T05:08:40;10.03;73.77
83596;HTU21D;73564;45.026;38.952;2023-11-21T05:11:07;10.00;73.29
83596;HTU21D;73564;45.026;38.952;2023-11-21T05:13:36;9.88;73.68
83596;HTU21D;73564;45.026;38.952;2023-11-21T05:16:03;9.88;74.15
83596;HTU21D;73564;45.026;38.952;2023-11-21T05:18:32;9.88;74.03
83596;HTU21D;73564;45.026;38.952;2023-11-21T05:20:57;9.86;73.90
83596;HTU21D;73564;45.026;38.952;2023-11-21T05:23:24;9.85;73.58
83596;HTU21D;73564;45.026;38.952;2023-11-21T05:25:50;9.81;73.96
83596;HTU21D;73564;45.026;38.952;2023-11-21T05:28:16;9.81;74.18
83596;HTU21D;73564;45.026;38.952;2023-11-21T05:30:42;9.82;74.07
83596;HTU21D;73564;45.026;38.952;2023-11-21T05:33:08;9.86;74.23
83596;HTU21D;73564;45.026;38.952;2023-11-21T05:35:33;9.90;73.99
83596;HTU21D;73564;45.026;38.952;2023-11-21T05:37:59;9.94;73.86
83596;HTU21D;73564;45.026;38.952;2023-11-21T05:40:25;9.97;73.97
83596;HTU21D;73564;45.026;38.952;2023-11-21T05:42:55;10.01;73.77
83596;HTU21D;73564;45.026;38.952;2023-11-21T05:45:21;9.99;73.33
83596;HTU21D;73564;45.026;38.952;2023-11-21T05:47:47;9.94;73.48
83596;HTU21D;73564;45.026;38.952;2023-11-21T05:50:15;9.88;73.17
83596;HTU21D;73564;45.026;38.952;2023-11-21T05:52:42;9.78;73.37
83596;HTU21D;73564;45.026;38.952;2023-11-21T05:55:08;9.69;73.83
83596;HTU21D;73564;45.026;38.952;2023-11-21T05:57:35;9.71;74.06
83596;HTU21D;73564;45.026;38.952;2023-11-21T06:00:06;9.74;73.80
83596;HTU21D;73564;45.026;38.952;2023-11-21T06:02:39;9.76;73.95
83596;HTU21D;73564;45.026;38.952;2023-11-21T06:05:07;9.71;74.02
83596;HTU21D;73564;45.026;38.952;2023-11-21T06:07:34;9.77;74.06
83596;HTU21D;73564;45.026;38.952;2023-11-21T06:10:04;9.81;73.73
83596;HTU21D;73564;45.026;38.952;2023-11-21T06:12:37;9.79;73.69
83596;HTU21D;73564;45.026;38.952;2023-11-21T06:15:04;9.78;73.63
83596;HTU21D;73564;45.026;38.952;2023-11-21T06:17:31;9.78;73.98
83596;HTU21D;73564;45.026;38.952;2023-11-21T06:19:57;9.80;74.00
83596;HTU21D;73564;45.026;38.952;2023-11-21T06:22:23;9.84;73.92
83596;HTU21D;73564;45.026;38.952;2023-11-21T06:24:49;9.85;74.00
83596;HTU21D;73564;45.026;38.952;2023-11-21T06:27:15;9.89;74.08
83596;HTU21D;73564;45.026;38.952;2023-11-21T06:29:41;9.94;74.02
83596;HTU21D;73564;45.026;38.952;2023-11-21T06:32:08;9.98;73.55
83596;HTU21D;73564;45.026;38.952;2023-11-21T06:34:34;10.04;73.88
83596;HTU21D;73564;45.026;38.952;2023-11-21T06:37:00;10.08;73.54
83596;HTU21D;73564;45.026;38.952;2023-11-21T06:39:26;10.08;73.41
83596;HTU21D;73564;45.026;38.952;2023-11-21T06:41:53;10.08;73.35
83596;HTU21D;73564;45.026;38.952;2023-11-21T06:44:20;10.08;73.22
83596;HTU21D;73564;45.026;38.952;2023-11-21T06:46:45;10.11;73.38
83596;HTU21D;73564;45.026;38.952;2023-11-21T06:49:11;10.09;72.94
83596;HTU21D;73564;45.026;38.952;2023-11-21T06:51:37;10.10;73.48
83596;HTU21D;73564;45.026;38.952;2023-11-21T06:54:03;10.13;72.99
83596;HTU21D;73564;45.026;38.952;2023-11-21T06:56:30;10.15;73.45
83596;HTU21D;73564;45.026;38.952;2023-11-21T06:58:56;10.24;73.57
83596;HTU21D;73564;45.026;38.952;2023-11-21T07:01:22;10.29;73.06
83596;HTU21D;73564;45.026;38.952;2023-11-21T07:03:48;10.33;73.09
83596;HTU21D;73564;45.026;38.952;2023-11-21T07:06:14;10.34;73.45
83596;HTU21D;73564;45.026;38.952;2023-11-21T07:08:40;10.39;73.35
83596;HTU21D;73564;45.026;38.952;2023-11-21T07:11:06;10.40;73.15
83596;HTU21D;73564;45.026;38.952;2023-11-21T07:13:32;10.43;73.30
83596;HTU21D;73564;45.026;38.952;2023-11-21T07:15:59;10.48;73.21
83596;HTU21D;73564;45.026;38.952;2023-11-21T07:18:25;10.49;73.21
83596;HTU21D;73564;45.026;38.952;2023-11-21T07:20:51;10.49;72.91
83596;HTU21D;73564;45.026;38.952;2023-11-21T07:23:17;10.50;73.21
83596;HTU21D;73564;45.026;38.952;2023-11-21T07:25:43;10.49;72.94
83596;HTU21D;73564;45.026;38.952;2023-11-21T07:28:09;10.52;74.13
83596;HTU21D;73564;45.026;38.952;2023-11-21T07:30:35;10.69;73.66
83596;HTU21D;73564;45.026;38.952;2023-11-21T07:33:01;10.84;73.14
83596;HTU21D;73564;45.026;38.952;2023-11-21T07:35:27;10.99;72.77
83596;HTU21D;73564;45.026;38.952;2023-11-21T07:37:53;11.12;72.60
83596;HTU21D;73564;45.026;38.952;2023-11-21T07:40:19;11.25;72.06
83596;HTU21D;73564;45.026;38.952;2023-11-21T07:42:45;11.33;70.59
83596;HTU21D;73564;45.026;38.952;2023-11-21T07:45:11;11.39;70.90
83596;HTU21D;73564;45.026;38.952;2023-11-21T07:47:37;11.28;70.32
83596;HTU21D;73564;45.026;38.952;2023-11-21T07:50:05;11.11;70.57
83596;HTU21D;73564;45.026;38.952;2023-11-21T07:52:33;11.04;71.01
83596;HTU21D;73564;45.026;38.952;2023-11-21T07:54:59;10.96;70.68
83596;HTU21D;73564;45.026;38.952;2023-11-21T07:57:25;10.87;71.21
83596;HTU21D;73564;45.026;38.952;2023-11-21T07:59:51;10.82;71.27
83596;HTU21D;73564;45.026;38.952;2023-11-21T08:02:19;10.78;71.44
83596;HTU21D;73564;45.026;38.952;2023-11-21T08:04:45;10.77;71.67
83596;HTU21D;73564;45.026;38.952;2023-11-21T08:07:11;10.77;71.38
83596;HTU21D;73564;45.026;38.952;2023-11-21T08:09:36;10.72;71.55
83596;HTU21D;73564;45.026;38.952;2023-11-21T08:12:03;10.75;72.02
83596;HTU21D;73564;45.026;38.952;2023-11-21T08:14:30;10.80;71.93
83596;HTU21D;73564;45.026;38.952;2023-11-21T08:16:56;10.83;71.93
83596;HTU21D;73564;45.026;38.952;2023-11-21T08:19:23;10.90;71.88
83596;HTU21D;73564;45.026;38.952;2023-11-21T08:21:52;10.97;71.29
83596;HTU21D;73564;45.026;38.952;2023-11-21T08:24:21;11.08;71.10
83596;HTU21D;73564;45.026;38.952;2023-11-21T08:26:47;11.12;70.88
83596;HTU21D;73564;45.026;38.952;2023-11-21T08:29:13;11.20;70.38
83596;HTU21D;73564;45.026;38.952;2023-11-21T08:31:39;11.27;70.26
83596;HTU21D;73564;45.026;38.952;2023-11-21T08:34:06;11.32;69.72
83596;HTU21D;73564;45.026;38.952;2023-11-21T08:36:32;11.34;69.61
83596;HTU21D;73564;45.026;38.952;2023-11-21T08:38:58;11.36;69.33
83596;HTU21D;73564;45.026;38.952;2023-11-21T08:41:24;11.37;68.79
83596;HTU21D;73564;45.026;38.952;2023-11-21T08:43:50;11.34;68.87
83596;HTU21D;73564;45.026;38.952;2023-11-21T08:46:16;11.36;67.18
83596;HTU21D;73564;45.026;38.952;2023-11-21T08:48:44;11.33;69.23
83596;HTU21D;73564;45.026;38.952;2023-11-21T08:51:10;11.33;68.87
83596;HTU21D;73564;45.026;38.952;2023-11-21T08:53:38;11.30;68.43
83596;HTU21D;73564;45.026;38.952;2023-11-21T08:56:04;11.18;67.69
83596;HTU21D;73564;45.026;38.952;2023-11-21T08:58:33;11.05;67.62
83596;HTU21D;73564;45.026;38.952;2023-11-21T09:00:59;10.92;68.76
83596;HTU21D;73564;45.026;38.952;2023-11-21T09:03:25;10.85;68.83
83596;HTU21D;73564;45.026;38.952;2023-11-21T09:05:51;10.75;69.10
83596;HTU21D;73564;45.026;38.952;2023-11-21T09:08:17;10.72;69.19
83596;HTU21D;73564;45.026;38.952;2023-11-21T09:10:42;10.63;69.00
83596;HTU21D;73564;45.026;38.952;2023-11-21T09:13:11;10.58;69.24
83596;HTU21D;73564;45.026;38.952;2023-11-21T09:15:37;10.58;69.47
83596;HTU21D;73564;45.026;38.952;2023-11-21T09:18:04;10.62;69.44
83596;HTU21D;73564;45.026;38.952;2023-11-21T09:20:30;10.64;69.20
83596;HTU21D;73564;45.026;38.952;2023-11-21T09:22:56;10.56;69.55
83596;HTU21D;73564;45.026;38.952;2023-11-21T09:25:22;10.56;69.80
83596;HTU21D;73564;45.026;38.952;2023-11-21T09:27:48;10.57;69.45
83596;HTU21D;73564;45.026;38.952;2023-11-21T09:30:14;10.54;69.55
83596;HTU21D;73564;45.026;38.952;2023-11-21T09:32:40;10.54;69.45
83596;HTU21D;73564;45.026;38.952;2023-11-21T09:35:06;10.52;69.87
83596;HTU21D;73564;45.026;38.952;2023-11-21T09:37:35;10.53;69.56
83596;HTU21D;73564;45.026;38.952;2023-11-21T09:40:04;10.51;70.12
83596;HTU21D;73564;45.026;38.952;2023-11-21T09:42:39;10.48;69.46
83596;HTU21D;73564;45.026;38.952;2023-11-21T09:45:27;10.44;70.41
83596;HTU21D;73564;45.026;38.952;2023-11-21T09:47:57;10.49;71.10
83596;HTU21D;73564;45.026;38.952;2023-11-21T09:50:23;10.59;71.25
83596;HTU21D;73564;45.026;38.952;2023-11-21T09:55:34;10.90;70.91
83596;HTU21D;73564;45.026;38.952;2023-11-21T09:58:04;11.11;70.36
83596;HTU21D;73564;45.026;38.952;2023-11-21T10:00:36;11.24;69.29
83596;HTU21D;73564;45.026;38.952;2023-11-21T10:03:02;11.31;69.18
83596;HTU21D;73564;45.026;38.952;2023-11-21T10:05:28;11.39;68.48
83596;HTU21D;73564;45.026;38.952;2023-11-21T10:07:56;11.47;68.43
83596;HTU21D;73564;45.026;38.952;2023-11-21T10:10:23;11.57;68.19
83596;HTU21D;73564;45.026;38.952;2023-11-21T10:12:54;11.64;68.04
83596;HTU21D;73564;45.026;38.952;2023-11-21T10:15:24;11.70;67.10
83596;HTU21D;73564;45.026;38.952;2023-11-21T10:17:53;11.72;67.40
83596;HTU21D;73564;45.026;38.952;2023-11-21T10:20:20;11.68;67.77
83596;HTU21D;73564;45.026;38.952;2023-11-21T10:22:47;11.70;68.10
83596;HTU21D;73564;45.026;38.952;2023-11-21T10:25:13;11.70;68.17
83596;HTU21D;73564;45.026;38.952;2023-11-21T10:27:47;11.75;68.05
83596;HTU21D;73564;45.026;38.952;2023-11-21T10:30:14;11.77;68.30
83596;HTU21D;73564;45.026;38.952;2023-11-21T10:32:42;11.75;67.99
83596;HTU21D;73564;45.026;38.952;2023-11-21T10:35:09;11.71;67.88
83596;HTU21D;73564;45.026;38.952;2023-11-21T10:37:41;11.64;68.15
83596;HTU21D;73564;45.026;38.952;2023-11-21T10:40:08;11.61;68.34
83596;HTU21D;73564;45.026;38.952;2023-11-21T10:42:41;11.61;67.95
83596;HTU21D;73564;45.026;38.952;2023-11-21T10:45:08;11.52;68.30
83596;HTU21D;73564;45.026;38.952;2023-11-21T10:47:44;11.46;68.75
83596;HTU21D;73564;45.026;38.952;2023-11-21T10:50:10;11.42;68.97
83596;HTU21D;73564;45.026;38.952;2023-11-21T10:52:39;11.39;68.94
83596;HTU21D;73564;45.026;38.952;2023-11-21T10:55:18;11.28;68.42
83596;HTU21D;73564;45.026;38.952;2023-11-21T10:57:49;11.23;69.66
83596;HTU21D;73564;45.026;38.952;2023-11-21T11:00:17;11.22;69.81
83596;HTU21D;73564;45.026;38.952;2023-11-21T11:02:51;11.22;69.43
83596;HTU21D;73564;45.026;38.952;2023-11-21T11:05:20;11.13;69.70
83596;HTU21D;73564;45.026;38.952;2023-11-21T11:08:05;11.08;69.69
83596;HTU21D;73564;45.026;38.952;2023-11-21T11:10:32;11.05;70.13
83596;HTU21D;73564;45.026;38.952;2023-11-21T11:12:58;11.08;70.40
83596;HTU21D;73564;45.026;38.952;2023-11-21T11:15:25;11.10;70.34
83596;HTU21D;73564;45.026;38.952;2023-11-21T11:17:53;11.10;70.52
83596;HTU21D;73564;45.026;38.952;2023-11-21T11:20:33;11.13;70.64
83596;HTU21D;73564;45.026;38.952;2023-11-21T11:26:12;11.15;71.39
83596;HTU21D;73564;45.026;38.952;2023-11-21T11:28:51;11.18;71.90
83596;HTU21D;73564;45.026;38.952;2023-11-21T11:31:43;11.24;71.53
83596;HTU21D;73564;45.026;38.952;2023-11-21T11:37:11;11.26;71.15
83596;HTU21D;73564;45.026;38.952;2023-11-21T11:39:41;11.24;71.79
83596;HTU21D;73564;45.026;38.952;2023-11-21T11:42:15;11.26;71.52
83596;HTU21D;73564;45.026;38.952;2023-11-21T11:50:00;11.28;72.21
83596;HTU21D;73564;45.026;38.952;2023-11-21T11:52:32;11.31;71.92
83596;HTU21D;73564;45.026;38.952;2023-11-21T11:55:00;11.36;72.09
83596;HTU21D;73564;45.026;38.952;2023-11-21T11:57:26;11.42;72.07
83596;HTU21D;73564;45.026;38.952;2023-11-21T12:00:13;11.45;71.16
83596;HTU21D;73564;45.026;38.952;2023-11-21T12:02:44;11.43;71.90
83596;HTU21D;73564;45.026;38.952;2023-11-21T12:05:12;11.43;71.64
83596;HTU21D;73564;45.026;38.952;2023-11-21T12:07:55;11.43;72.17
83596;HTU21D;73564;45.026;38.952;2023-11-21T12:10:30;11.45;72.15
83596;HTU21D;73564;45.026;38.952;2023-11-21T12:12:57;11.46;72.42
83596;HTU21D;73564;45.026;38.952;2023-11-21T12:15:24;11.49;72.02
83596;HTU21D;73564;45.026;38.952;2023-11-21T12:17:51;11.44;71.20
83596;HTU21D;73564;45.026;38.952;2023-11-21T12:20:22;11.43;72.11
83596;HTU21D;73564;45.026;38.952;2023-11-21T12:22:49;11.45;72.14
83596;HTU21D;73564;45.026;38.952;2023-11-21T12:25:24;11.47;71.71
83596;HTU21D;73564;45.026;38.952;2023-11-21T12:27:53;11.46;71.83
83596;HTU21D;73564;45.026;38.952;2023-11-21T12:30:23;11.48;72.09
83596;HTU21D;73564;45.026;38.952;2023-11-21T12:32:54;11.51;71.51
83596;HTU21D;73564;45.026;38.952;2023-11-21T12:35:25;11.44;71.57
83596;HTU21D;73564;45.026;38.952;2023-11-21T12:37:52;11.41;71.59
83596;HTU21D;73564;45.026;38.952;2023-11-21T12:40:25;11.42;71.62
83596;HTU21D;73564;45.026;38.952;2023-11-21T12:42:53;11.42;71.95
83596;HTU21D;73564;45.026;38.952;2023-11-21T12:45:24;11.47;71.80
83596;HTU21D;73564;45.026;38.952;2023-11-21T12:48:01;11.51;70.74
83596;HTU21D;73564;45.026;38.952;2023-11-21T12:50:30;11.48;71.53
83596;HTU21D;73564;45.026;38.952;2023-11-21T12:53:21;11.44;71.37
83596;HTU21D;73564;45.026;38.952;2023-11-21T12:55:46;11.40;71.49
83596;HTU21D;73564;45.026;38.952;2023-11-21T12:58:15;11.38;72.00
83596;HTU21D;73564;45.026;38.952;2023-11-21T13:00:48;11.39;71.39
83596;HTU21D;73564;45.026;38.952;2023-11-21T13:03:17;11.38;71.68
83596;HTU21D;73564;45.026;38.952;2023-11-21T13:05:49;11.38;71.68
83596;HTU21D;73564;45.026;38.952;2023-11-21T13:08:20;11.36;71.77
83596;HTU21D;73564;45.026;38.952;2023-11-21T13:10:52;11.40;71.63
83596;HTU21D;73564;45.026;38.952;2023-11-21T13:13:19;11.36;71.39
83596;HTU21D;73564;45.026;38.952;2023-11-21T13:16:02;11.28;71.15
83596;HTU21D;73564;45.026;38.952;2023-11-21T13:18:34;11.19;71.91
83596;HTU21D;73564;45.026;38.952;2023-11-21T13:21:02;11.15;71.96
83596;HTU21D;73564;45.026;38.952;2023-11-21T13:23:34;11.20;72.14
83596;HTU21D;73564;45.026;38.952;2023-11-21T13:26:01;11.23;72.12
83596;HTU21D;73564;45.026;38.952;2023-11-21T13:28:30;11.23;72.32
83596;HTU21D;73564;45.026;38.952;2023-11-21T13:30:59;11.27;72.61
83596;HTU21D;73564;45.026;38.952;2023-11-21T13:33:43;11.32;72.29
83596;HTU21D;73564;45.026;38.952;2023-11-21T13:36:15;11.31;72.42
83596;HTU21D;73564;45.026;38.952;2023-11-21T13:38:51;11.34;72.91
83596;HTU21D;73564;45.026;38.952;2023-11-21T13:41:20;11.40;73.19
83596;HTU21D;73564;45.026;38.952;2023-11-21T13:43:48;11.47;72.98
83596;HTU21D;73564;45.026;38.952;2023-11-21T13:46:23;11.52;72.89
83596;HTU21D;73564;45.026;38.952;2023-11-21T13:48:50;11.54;72.76
83596;HTU21D;73564;45.026;38.952;2023-11-21T13:51:24;11.54;72.97
83596;HTU21D;73564;45.026;38.952;2023-11-21T13:54:02;11.54;72.88
83596;HTU21D;73564;45.026;38.952;2023-11-21T13:56:28;11.54;72.72
83596;HTU21D;73564;45.026;38.952;2023-11-21T13:58:55;11.54;73.11
83596;HTU21D;73564;45.026;38.952;2023-11-21T14:01:23;11.53;72.23
83596;HTU21D;73564;45.026;38.952;2023-11-21T14:03:59;11.43;72.74
83596;HTU21D;73564;45.026;38.952;2023-11-21T14:06:38;11.39;73.75
83596;HTU21D;73564;45.026;38.952;2023-11-21T14:09:18;11.40;72.96
83596;HTU21D;73564;45.026;38.952;2023-11-21T14:11:52;11.31;72.72
83596;HTU21D;73564;45.026;38.952;2023-11-21T14:14:20;11.23;73.22
83596;HTU21D;73564;45.026;38.952;2023-11-21T14:16:47;11.18;73.12
83596;HTU21D;73564;45.026;38.952;2023-11-21T14:19:13;11.09;73.44
83596;HTU21D;73564;45.026;38.952;2023-11-21T14:21:43;11.02;72.92
83596;HTU21D;73564;45.026;38.952;2023-11-21T14:24:10;10.95;73.54
83596;HTU21D;73564;45.026;38.952;2023-11-21T14:26:40;10.90;73.32
83596;HTU21D;73564;45.026;38.952;2023-11-21T14:29:07;10.84;73.25
83596;HTU21D;73564;45.026;38.952;2023-11-21T14:31:34;10.80;73.47
83596;HTU21D;73564;45.026;38.952;2023-11-21T14:34:00;10.75;73.96
83596;HTU21D;73564;45.026;38.952;2023-11-21T14:36:32;10.79;74.04
83596;HTU21D;73564;45.026;38.952;2023-11-21T14:38:58;10.79;73.94
83596;HTU21D;73564;45.026;38.952;2023-11-21T14:41:27;10.82;73.65
83596;HTU21D;73564;45.026;38.952;2023-11-21T14:44:04;10.79;74.02
83596;HTU21D;73564;45.026;38.952;2023-11-21T14:46:30;10.81;74.41
83596;HTU21D;73564;45.026;38.952;2023-11-21T14:48:56;10.88;74.39
83596;HTU21D;73564;45.026;38.952;2023-11-21T14:51:28;10.97;74.50
83596;HTU21D;73564;45.026;38.952;2023-11-21T14:53:58;11.04;73.51
83596;HTU21D;73564;45.026;38.952;2023-11-21T14:56:32;11.03;73.83
83596;HTU21D;73564;45.026;38.952;2023-11-21T14:59:01;11.07;74.22
83596;HTU21D;73564;45.026;38.952;2023-11-21T15:01:42;11.09;74.18
83596;HTU21D;73564;45.026;38.952;2023-11-21T15:04:20;11.12;74.12
83596;HTU21D;73564;45.026;38.952;2023-11-21T15:07:02;11.10;73.37
83596;HTU21D;73564;45.026;38.952;2023-11-21T15:09:28;11.08;73.25
83596;HTU21D;73564;45.026;38.952;2023-11-21T15:12:00;11.04;73.48
83596;HTU21D;73564;45.026;38.952;2023-11-21T15:14:55;10.97;74.07
83596;HTU21D;73564;45.026;38.952;2023-11-21T15:17:23;11.01;74.38
83596;HTU21D;73564;45.026;38.952;2023-11-21T15:19:52;11.07;74.04
83596;HTU21D;73564;45.026;38.952;2023-11-21T15:22:19;11.13;74.40
83596;HTU21D;73564;45.026;38.952;2023-11-21T15:24:45;11.15;74.04